EW5806 Vera ES current weather conditions

sailwx.info

Wind from 315 at 3 knots gusting 6

Air temperature 16.7° C
Dewpoint 8.9° C

Last reported at 2020-Jan-17 15:07 UTC.
Time now 2020-Jan-17 18:19 UTC

Location: N 37°13' W 001°48'.
View on Google Maps.

See reports from other nearby stations

  
Tides and Currents Weather Stations Pressure Air Temp Water Temp Dewpoint Dewpoint Depression Visibility Wind Speed Wind Dir Waves Ship Positions
date/time (UTC)wind fromknots sea level pressurealtimeterstation pressurevisibilityair tempwater tempwave heightnotes
2020-Jan-17 15:07 315 3 gusting 6 16.7
2020-Jan-17 14:56 090 3 gusting 5 16.7
2020-Jan-17 14:46 180 3 gusting 6 16.7
2020-Jan-17 14:36 045 4 gusting 6 16.7
2020-Jan-17 14:26 090 3 gusting 6 16.7
2020-Jan-17 14:16 090 2 gusting 4 16.7
2020-Jan-17 14:06 338 2 gusting 5 16.7
2020-Jan-17 13:56 090 3 gusting 6 16.7
2020-Jan-17 13:46 16.7
2020-Jan-17 13:35 045 2 gusting 4 16.7
2020-Jan-17 13:25 293 3 gusting 5 16.7
2020-Jan-17 13:15 090 1 gusting 2 16.7
2020-Jan-17 13:05 135 2 gusting 6 17.2
2020-Jan-17 12:55 045 1 gusting 5 17.2
2020-Jan-17 12:35 135 2 gusting 3 16.7
2020-Jan-17 12:25 135 1 gusting 2 16.1
2020-Jan-17 12:14 293 2 gusting 3 16.1
2020-Jan-17 12:04 090 3 gusting 4 16.1
2020-Jan-17 11:54 16.1
2020-Jan-17 11:44 045 1 gusting 3 16.1
2020-Jan-17 11:34 135 2 gusting 3 16.1
2020-Jan-17 11:24 090 0 gusting 1 16.1
2020-Jan-17 11:14 135 0 gusting 3 16.7
2020-Jan-17 11:04 16.7
2020-Jan-17 10:54 045 0 gusting 1 17.8
2020-Jan-17 10:44 16.7
2020-Jan-17 10:34 135 3 gusting 4 16.7
2020-Jan-17 10:24 15.6
2020-Jan-17 10:14 315 1 gusting 2 15.0
2020-Jan-17 10:03 13.9
2020-Jan-17 09:53 13.3
2020-Jan-17 09:43 12.8
2020-Jan-17 09:33 12.2
2020-Jan-17 09:23 12.2
2020-Jan-17 09:13 11.7
2020-Jan-17 09:03 315 1 gusting 1 11.1
2020-Jan-17 08:53 270 0 gusting 1 10.6
2020-Jan-17 08:43 10.6
2020-Jan-17 08:33 090 1 gusting 3 10.0
2020-Jan-17 08:22 315 1 gusting 2 10.0
2020-Jan-17 08:02 225 1 gusting 1 10.0
2020-Jan-17 07:44 270 1 gusting 2 9.4
2020-Jan-17 07:34 315 1 gusting 2 9.4
2020-Jan-17 07:24 9.4
2020-Jan-17 07:14 225 2 gusting 3 9.4
2020-Jan-17 07:04 270 1 gusting 3 8.9
2020-Jan-17 06:54 8.9
2020-Jan-17 06:44 225 1 gusting 2 8.9
2020-Jan-17 06:34 8.3
2020-Jan-17 06:24 7.2
2020-Jan-17 06:14 7.2
2020-Jan-17 06:04 7.8
2020-Jan-17 05:54 8.3
2020-Jan-17 05:44 293 1 gusting 3 8.3
2020-Jan-17 05:33 315 3 gusting 3 8.3
2020-Jan-17 05:23 8.3
2020-Jan-17 05:13 225 2 gusting 3 8.3
2020-Jan-17 05:03 8.3
2020-Jan-17 04:53 270 6 gusting 6 8.3
2020-Jan-17 04:43 270 5 gusting 7 7.8
2020-Jan-17 04:33 315 5 gusting 6 7.8
2020-Jan-17 04:23 7.8
2020-Jan-17 04:13 270 3 gusting 4 7.8
2020-Jan-17 04:03 315 6 gusting 7 7.8
2020-Jan-17 03:53 7.8
2020-Jan-17 03:43 315 3 gusting 5 7.8
2020-Jan-17 03:32 315 0 gusting 3 7.8
2020-Jan-17 03:22 270 1 gusting 2 7.8
2020-Jan-17 03:12 315 3 gusting 4 7.8
2020-Jan-17 03:02 293 3 gusting 5 7.8
2020-Jan-17 02:52 270 4 gusting 6 8.3
2020-Jan-17 02:42 8.3
2020-Jan-17 02:32 270 4 gusting 5 8.3
2020-Jan-17 02:22 315 4 gusting 6 8.3
2020-Jan-17 02:12 315 6 gusting 7 8.3
2020-Jan-17 02:02 270 4 gusting 6 8.3
2020-Jan-17 01:52 315 4 gusting 6 8.3
2020-Jan-17 01:42 315 5 gusting 6 7.8
2020-Jan-17 01:31 270 3 gusting 4 7.8
2020-Jan-17 01:21 315 4 gusting 5 7.8
2020-Jan-17 01:11 8.3
2020-Jan-17 01:01 8.3
2020-Jan-17 00:51 270 2 gusting 3 8.3
2020-Jan-17 00:41 8.9
2020-Jan-17 00:31 270 3 gusting 3 8.9
2020-Jan-17 00:21 315 3 gusting 6 8.3
2020-Jan-17 00:10 270 4 gusting 5 8.9
2020-Jan-17 00:00 315 3 gusting 4 8.3
2020-Jan-16 23:50 315 6 gusting 6 8.3
2020-Jan-16 23:40 270 4 gusting 5 8.3
2020-Jan-16 23:30 315 1 gusting 2 8.9
2020-Jan-16 23:20 270 2 gusting 3 9.4
2020-Jan-16 23:10 315 4 gusting 6 9.4
2020-Jan-16 22:50 9.4
2020-Jan-16 22:39 9.4
2020-Jan-16 22:29 9.4
2020-Jan-16 22:19 9.4
2020-Jan-16 22:09 270 3 gusting 4 9.4
2020-Jan-16 21:59 315 1 gusting 2 9.4
2020-Jan-16 21:49 293 2 gusting 3 9.4
2020-Jan-16 21:39 9.4
2020-Jan-16 21:29 315 2 gusting 3 9.4
2020-Jan-16 21:19 315 4 gusting 6 9.4
2020-Jan-16 21:09 293 3 gusting 4 10.0
2020-Jan-16 20:59 293 3 gusting 3 10.0
2020-Jan-16 20:49 10.6
2020-Jan-16 20:39 270 3 gusting 3 10.6
2020-Jan-16 20:28 11.1
2020-Jan-16 20:18 10.6
2020-Jan-16 20:08 315 1 gusting 3 11.1
2020-Jan-16 19:58 11.7
2020-Jan-16 19:48 11.7
2020-Jan-16 19:38 11.7
2020-Jan-16 19:28 315 2 gusting 3 11.7
2020-Jan-16 19:18 12.2
2020-Jan-16 19:08 12.2
2020-Jan-16 18:58 12.2
2020-Jan-16 18:47 12.8
2020-Jan-16 18:37 12.8
2020-Jan-16 18:27 12.8
2020-Jan-16 18:17 315 1 gusting 2 12.8
2020-Jan-16 18:07 13.3
2020-Jan-16 17:57 13.9
2020-Jan-16 17:47 315 0 gusting 1 14.4
2020-Jan-16 17:37 14.4
2020-Jan-16 17:27 15.0
2020-Jan-16 17:17 135 2 gusting 4 15.0
2020-Jan-16 17:07 090 4 gusting 6 15.0
2020-Jan-16 16:56 090 2 gusting 4 15.0
2020-Jan-16 16:46 135 4 gusting 6 15.0
2020-Jan-16 16:36 135 3 gusting 6 15.0
2020-Jan-16 16:26 15.0
2020-Jan-16 16:16 15.0
2020-Jan-16 16:06 135 3 gusting 4 15.0
2020-Jan-16 15:56 135 3 gusting 5 15.6
2020-Jan-16 15:46 090 1 gusting 3 15.6
2020-Jan-16 15:36 090 3 gusting 5 15.6
2020-Jan-16 15:26 090 3 gusting 5 15.6
2020-Jan-16 15:16 103 4 gusting 6 15.6
2020-Jan-16 15:05 090 4 gusting 6 15.6
2020-Jan-16 14:55 090 4 gusting 6 15.6
2020-Jan-16 14:45 090 1 gusting 2 15.6
2020-Jan-16 14:35 090 1 gusting 3 15.6
2020-Jan-16 14:25 090 2 gusting 3 15.6
2020-Jan-16 14:15 15.6
2020-Jan-16 14:05 15.6
2020-Jan-16 13:55 090 2 gusting 3 15.6
2020-Jan-16 13:45 315 2 gusting 3 15.6
2020-Jan-16 13:35 045 2 gusting 3 16.1
2020-Jan-16 13:15 045 2 gusting 3 16.1
2020-Jan-16 13:05 293 3 gusting 5 16.1
2020-Jan-16 12:54 090 2 gusting 3 16.1
2020-Jan-16 12:44 135 1 gusting 3 16.1
2020-Jan-16 12:34 090 1 gusting 3 16.1
2020-Jan-16 12:24 293 2 gusting 6 16.1
2020-Jan-16 12:14 16.1
2020-Jan-16 12:04 045 3 gusting 3 16.1
2020-Jan-16 11:54 090 1 gusting 3 16.1
2020-Jan-16 11:44 135 1 gusting 1 16.1
2020-Jan-16 11:34 135 2 gusting 3 16.1
2020-Jan-16 11:24 090 3 gusting 4 16.7
2020-Jan-16 11:14 15.6
2020-Jan-16 11:04 15.0
2020-Jan-16 10:54 315 1 gusting 1 14.4
2020-Jan-16 10:43 315 2 gusting 3 14.4
2020-Jan-16 10:33 045 3 gusting 5 13.9
2020-Jan-16 10:23 270 3 gusting 6 13.3
2020-Jan-16 10:13 13.3
2020-Jan-16 10:03 315 6 gusting 6 12.8
2020-Jan-16 09:53 315 4 gusting 6 12.2
2020-Jan-16 09:43 270 3 gusting 4 11.7
2020-Jan-16 09:33 315 4 gusting 6 11.1
2020-Jan-16 09:23 315 6 gusting 8 10.6
2020-Jan-16 09:13 293 5 gusting 7 10.0
2020-Jan-16 09:03 315 5 gusting 6 10.0
2020-Jan-16 08:53 9.4
2020-Jan-16 08:43 315 5 gusting 6 9.4
2020-Jan-16 08:32 315 6 gusting 8 9.4
2020-Jan-16 08:22 045 6 gusting 8 9.4
2020-Jan-16 08:02 8.9
2020-Jan-16 07:57 293 6 gusting 8 8.9
2020-Jan-16 07:47 270 7 gusting 11 8.3
2020-Jan-16 07:37 315 9 gusting 13 8.9
2020-Jan-16 07:27 8.9
2020-Jan-16 07:17 315 7 gusting 9 8.9
2020-Jan-16 07:06 315 6 gusting 9 8.9
2020-Jan-16 06:56 090 6 gusting 9 8.9
2020-Jan-16 06:46 315 6 gusting 8 8.9
2020-Jan-16 06:36 270 6 gusting 7 8.9
2020-Jan-16 06:26 225 6 gusting 8 8.3
2020-Jan-16 06:16 8.3
2020-Jan-16 06:06 331 6 gusting 9 8.3
2020-Jan-16 05:56 270 7 gusting 10 8.3
2020-Jan-16 05:46 8.9
2020-Jan-16 05:36 315 6 gusting 10 8.9
2020-Jan-16 05:26 270 6 gusting 6 8.9
2020-Jan-16 05:16 270 6 gusting 9 8.9
2020-Jan-16 05:06 315 6 gusting 8 8.9
2020-Jan-16 04:55 225 6 gusting 7 8.3
2020-Jan-16 04:45 8.3
2020-Jan-16 04:35 8.3
2020-Jan-16 04:25 299 5 gusting 6 7.8
2020-Jan-16 04:15 315 6 gusting 7 8.3
2020-Jan-16 04:05 8.3
2020-Jan-16 03:55 090 6 gusting 8 7.8
2020-Jan-16 03:45 7.8
2020-Jan-16 03:35 315 6 gusting 9 7.8
2020-Jan-16 03:25 315 5 gusting 6 8.3
2020-Jan-16 03:05 7.8
2020-Jan-16 02:54 8.3
2020-Jan-16 02:44 315 8 gusting 9 7.8
2020-Jan-16 02:34 270 6 gusting 6 7.8
2020-Jan-16 02:24 7.8
2020-Jan-16 02:14 315 6 gusting 7 7.8
2020-Jan-16 02:04 315 6 gusting 6 7.8
2020-Jan-16 01:54 270 6 gusting 7 7.8
2020-Jan-16 01:44 315 6 gusting 9 8.3
2020-Jan-16 01:34 270 6 gusting 8 8.3
2020-Jan-16 01:24 270 5 gusting 6 8.3
2020-Jan-16 01:14 8.3
2020-Jan-16 01:04 315 6 gusting 7 8.3
2020-Jan-16 00:54 315 4 gusting 6 8.3
2020-Jan-16 00:43 315 4 gusting 6 8.3
2020-Jan-16 00:33 315 6 gusting 7 8.3
2020-Jan-16 00:23 270 3 gusting 3 8.3
2020-Jan-16 00:13 300 3 gusting 5 8.3
2020-Jan-16 00:03 8.3
2020-Jan-15 23:53 8.3
2020-Jan-15 23:43 8.9
2020-Jan-15 23:33 270 6 gusting 6 8.9
2020-Jan-15 23:23 315 5 gusting 6 8.9
2020-Jan-15 23:13 270 5 gusting 6 8.9
2020-Jan-15 23:03 315 4 gusting 6 8.9
2020-Jan-15 22:53 270 5 gusting 6 8.9
2020-Jan-15 22:43 8.9
2020-Jan-15 22:32 315 3 gusting 5 8.9
2020-Jan-15 22:22 315 2 gusting 3 9.4
2020-Jan-15 22:12 315 3 gusting 3 9.4
2020-Jan-15 22:02 9.4
2020-Jan-15 21:52 315 3 gusting 4 9.4
2020-Jan-15 21:42 270 4 gusting 6 9.4
2020-Jan-15 21:32 9.4
2020-Jan-15 21:22 293 5 gusting 6 9.4
2020-Jan-15 21:12 9.4
2020-Jan-15 21:02 9.4
2020-Jan-15 20:52 9.4
2020-Jan-15 20:42 293 3 gusting 5 10.0
2020-Jan-15 20:31 315 3 gusting 3 10.6
2020-Jan-15 20:21 293 4 gusting 5 11.1
2020-Jan-15 20:11 315 3 gusting 4 11.1
2020-Jan-15 20:01 315 5 gusting 6 11.1
2020-Jan-15 19:51 11.1
2020-Jan-15 19:41 293 5 gusting 6 11.1
2020-Jan-15 19:31 11.7
2020-Jan-15 19:21 11.7
2020-Jan-15 19:11 11.7
2020-Jan-15 19:01 11.7
2020-Jan-15 18:50 11.7
2020-Jan-15 18:30 12.2
2020-Jan-15 18:19 12.8
2020-Jan-15 18:09 13.3